Time;durP1;ratioP1;P1;durP2;ratioP2;P2;SDS_P1;SDS_P2;PMS_P1;PMS_P2;Temp;Humidity;BMP_temperature;BMP_pressure;BME280_temperature;BME280_humidity;BME280_pressure;Samples;Min_cycle;Max_cycle;Signal;HPM_P1;HPM_P2
2022/04/02 00:01:12;;;;;;;0.10;0.10;;;;;;;;;;5035408;28;20025;-74
2022/04/02 00:03:40;;;;;;;0.03;0.03;;;;;;;;;;5029132;28;20026;-74
2022/04/02 00:06:08;;;;;;;0.00;0.00;;;;;;;;;;5017848;28;20040;-74
2022/04/02 00:08:34;;;;;;;0.10;0.10;;;;;;;;;;5034533;28;20017;-74
2022/04/02 00:11:00;;;;;;;0.00;0.00;;;;;;;;;;5016549;28;20347;-74
2022/04/02 00:13:25;;;;;;;0.38;0.17;;;;;;;;;;5030987;28;20447;-74
2022/04/02 00:15:51;;;;;;;0.05;0.05;;;;;;;;;;5019985;28;20071;-74
2022/04/02 00:18:16;;;;;;;0.00;0.00;;;;;;;;;;5030393;28;20032;-74
2022/04/02 00:20:41;;;;;;;0.15;0.15;;;;;;;;;;5030186;28;20036;-74
2022/04/02 00:25:51;;;;;;;0.52;0.52;;;;;;;;;;5034436;28;20366;-74
2022/04/02 00:28:16;;;;;;;0.00;0.00;;;;;;;;;;5037100;28;20025;-74
2022/04/02 00:30:42;;;;;;;0.10;0.10;;;;;;;;;;5019533;28;20359;-75
2022/04/02 00:33:07;;;;;;;0.00;0.00;;;;;;;;;;5032926;28;20410;-74
2022/04/02 00:35:33;;;;;;;0.15;0.15;;;;;;;;;;5034703;28;20033;-74
2022/04/02 00:37:58;;;;;;;3.00;1.55;;;;;;;;;;5034288;28;20067;-74
2022/04/02 00:40:26;;;;;;;0.00;0.00;;;;;;;;;;5034374;28;20044;-74
2022/04/02 00:42:51;;;;;;;0.00;0.00;;;;;;;;;;5031727;28;20017;-74
2022/04/02 00:45:16;;;;;;;0.00;0.00;;;;;;;;;;5033841;28;20034;-75
2022/04/02 00:47:42;;;;;;;0.03;0.03;;;;;;;;;;5033366;28;20028;-74
2022/04/02 00:50:11;;;;;;;0.00;0.00;;;;;;;;;;5030487;28;20112;-75
2022/04/02 00:52:39;;;;;;;0.47;0.47;;;;;;;;;;5034633;28;20064;-74
2022/04/02 00:55:07;;;;;;;0.00;0.00;;;;;;;;;;5034630;28;20116;-74
2022/04/02 00:57:34;;;;;;;0.35;0.35;;;;;;;;;;5030449;28;20029;-74
2022/04/02 01:00:00;;;;;;;0.00;0.00;;;;;;;;;;5036143;28;20038;-74
2022/04/02 01:02:28;;;;;;;0.05;0.05;;;;;;;;;;5034199;28;20021;-72
2022/04/02 01:04:54;;;;;;;0.00;0.00;;;;;;;;;;5033777;28;20447;-72
2022/04/02 01:07:20;;;;;;;0.00;0.00;;;;;;;;;;5013647;28;20038;-74
2022/04/02 01:09:48;;;;;;;0.00;0.00;;;;;;;;;;5016496;28;20025;-74
2022/04/02 01:12:14;;;;;;;0.10;0.10;;;;;;;;;;5033964;28;20036;-75
2022/04/02 01:14:41;;;;;;;0.10;0.10;;;;;;;;;;5033248;28;20029;-74
2022/04/02 01:17:07;;;;;;;0.00;0.00;;;;;;;;;;5028965;28;20338;-74
2022/04/02 01:19:33;;;;;;;0.28;0.28;;;;;;;;;;5033281;28;20026;-74
2022/04/02 01:21:59;;;;;;;0.00;0.00;;;;;;;;;;5015569;28;20026;-74
2022/04/02 01:24:24;;;;;;;0.00;0.00;;;;;;;;;;5033612;28;20363;-74
2022/04/02 01:26:49;;;;;;;0.20;0.20;;;;;;;;;;5029918;28;20037;-75
2022/04/02 01:29:15;;;;;;;0.00;0.00;;;;;;;;;;5013571;28;20095;-75
2022/04/02 01:31:44;;;;;;;0.05;0.05;;;;;;;;;;5023500;28;20030;-74
2022/04/02 01:34:09;;;;;;;0.00;0.00;;;;;;;;;;5016390;28;20057;-75
2022/04/02 01:36:37;;;;;;;0.00;0.00;;;;;;;;;;5030948;28;20045;-74
2022/04/02 01:39:05;;;;;;;0.47;0.47;;;;;;;;;;5033872;28;20030;-75
2022/04/02 01:41:30;;;;;;;0.13;0.13;;;;;;;;;;5029245;28;20033;-74
2022/04/02 01:43:56;;;;;;;0.10;0.10;;;;;;;;;;5033457;28;20332;-75
2022/04/02 01:46:24;;;;;;;0.10;0.10;;;;;;;;;;5032833;28;20065;-74
2022/04/02 01:48:49;;;;;;;0.28;0.28;;;;;;;;;;5016095;28;20029;-74
2022/04/02 01:51:14;;;;;;;0.00;0.00;;;;;;;;;;5033853;28;20048;-75
2022/04/02 01:53:42;;;;;;;0.00;0.00;;;;;;;;;;5030144;28;20026;-75
2022/04/02 01:56:11;;;;;;;0.00;0.00;;;;;;;;;;5029393;28;20089;-75
2022/04/02 01:58:37;;;;;;;0.22;0.22;;;;;;;;;;5015792;28;20360;-75
2022/04/02 02:01:04;;;;;;;0.00;0.00;;;;;;;;;;5031700;28;20035;-75
2022/04/02 02:03:29;;;;;;;0.00;0.00;;;;;;;;;;5025671;28;20121;-75
2022/04/02 02:05:54;;;;;;;0.15;0.13;;;;;;;;;;5030630;28;20109;-75
2022/04/02 02:08:20;;;;;;;0.10;0.10;;;;;;;;;;5015234;28;20029;-75
2022/04/02 02:10:47;;;;;;;0.00;0.00;;;;;;;;;;5033921;28;20095;-75
2022/04/02 02:13:12;;;;;;;0.10;0.10;;;;;;;;;;5031133;28;20534;-75
2022/04/02 02:15:38;;;;;;;0.20;0.20;;;;;;;;;;5015494;28;20108;-75
2022/04/02 02:18:08;;;;;;;0.10;0.10;;;;;;;;;;5016487;28;20053;-75
2022/04/02 02:20:36;;;;;;;0.00;0.00;;;;;;;;;;5016181;28;20108;-75
2022/04/02 02:23:03;;;;;;;0.10;0.10;;;;;;;;;;5033085;28;20096;-75
2022/04/02 02:25:28;;;;;;;0.00;0.00;;;;;;;;;;5027278;28;20033;-75
2022/04/02 02:27:54;;;;;;;0.08;0.08;;;;;;;;;;5032369;28;20041;-74
2022/04/02 02:30:22;;;;;;;0.03;0.03;;;;;;;;;;5027984;28;20025;-74
2022/04/02 02:32:48;;;;;;;0.00;0.00;;;;;;;;;;5015013;28;20044;-74
2022/04/02 02:38:09;;;;;;;0.00;0.00;;;;;;;;;;5012401;28;20072;-75
2022/04/02 02:40:36;;;;;;;0.00;0.00;;;;;;;;;;5016124;28;20072;-73
2022/04/02 02:43:05;;;;;;;0.52;0.47;;;;;;;;;;5031791;28;20357;-72
2022/04/02 02:45:32;;;;;;;0.00;0.00;;;;;;;;;;5033144;28;20021;-72
2022/04/02 02:47:59;;;;;;;0.00;0.00;;;;;;;;;;5036368;28;20026;-72
2022/04/02 02:50:25;;;;;;;0.43;0.28;;;;;;;;;;5036330;28;20029;-72
2022/04/02 02:52:50;;;;;;;0.00;0.00;;;;;;;;;;5036993;28;20029;-71
2022/04/02 02:55:18;;;;;;;0.10;0.10;;;;;;;;;;5036535;28;20450;-72
2022/04/02 02:57:44;;;;;;;0.00;0.00;;;;;;;;;;5030258;28;20101;-72
2022/04/02 03:00:13;;;;;;;0.08;0.08;;;;;;;;;;5032254;28;20030;-72
2022/04/02 03:02:39;;;;;;;0.00;0.00;;;;;;;;;;5036194;28;20100;-72
2022/04/02 03:05:10;;;;;;;1.38;0.82;;;;;;;;;;5036277;28;20068;-73
2022/04/02 03:07:49;;;;;;;0.00;0.00;;;;;;;;;;5035602;28;20099;-72
2022/04/02 03:10:19;;;;;;;0.00;0.00;;;;;;;;;;5019264;28;20021;-71
2022/04/02 03:12:46;;;;;;;0.10;0.10;;;;;;;;;;5034492;28;20029;-72
2022/04/02 03:15:12;;;;;;;0.00;0.00;;;;;;;;;;5031273;28;20439;-72
2022/04/02 03:17:40;;;;;;;0.00;0.00;;;;;;;;;;5018420;28;20542;-72
2022/04/02 03:20:06;;;;;;;0.05;0.05;;;;;;;;;;5036449;28;20036;-71
2022/04/02 03:22:39;;;;;;;0.05;0.05;;;;;;;;;;5015036;28;20034;-72
2022/04/02 03:25:05;;;;;;;0.00;0.00;;;;;;;;;;5030064;28;20444;-72
2022/04/02 03:27:30;;;;;;;0.10;0.10;;;;;;;;;;5035453;28;20358;-72
2022/04/02 03:29:56;;;;;;;0.10;0.10;;;;;;;;;;5035274;28;20037;-73
2022/04/02 03:32:21;;;;;;;0.00;0.00;;;;;;;;;;5036050;28;20040;-73
2022/04/02 03:34:47;;;;;;;0.00;0.00;;;;;;;;;;5035845;28;20025;-71
2022/04/02 03:37:13;;;;;;;0.00;0.00;;;;;;;;;;5032144;28;20029;-73
2022/04/02 03:39:41;;;;;;;0.00;0.00;;;;;;;;;;5035726;28;20025;-72
2022/04/02 03:42:09;;;;;;;0.00;0.00;;;;;;;;;;5016408;28;20036;-72
2022/04/02 03:44:35;;;;;;;0.00;0.00;;;;;;;;;;5035443;28;20086;-72
2022/04/02 03:47:09;;;;;;;0.00;0.00;;;;;;;;;;5013995;28;20030;-72
2022/04/02 03:49:37;;;;;;;0.00;0.00;;;;;;;;;;5035729;28;20040;-72
2022/04/02 03:52:05;;;;;;;0.00;0.00;;;;;;;;;;5035482;28;20029;-71
2022/04/02 03:54:35;;;;;;;0.00;0.00;;;;;;;;;;5029003;28;20044;-71
2022/04/02 03:57:03;;;;;;;0.00;0.00;;;;;;;;;;5034037;28;20039;-71
2022/04/02 03:59:31;;;;;;;0.00;0.00;;;;;;;;;;5033935;28;20435;-72
2022/04/02 04:01:58;;;;;;;0.00;0.00;;;;;;;;;;5032633;28;20083;-72
2022/04/02 04:04:25;;;;;;;0.00;0.00;;;;;;;;;;5028219;28;20466;-71
2022/04/02 04:06:51;;;;;;;0.05;0.05;;;;;;;;;;5034992;28;20135;-72
2022/04/02 04:09:17;;;;;;;0.00;0.00;;;;;;;;;;5032934;28;20935;-74
2022/04/02 04:11:45;;;;;;;0.00;0.00;;;;;;;;;;5035196;28;20037;-74
2022/04/02 04:14:10;;;;;;;0.00;0.00;;;;;;;;;;5031901;28;20061;-71
2022/04/02 04:16:36;;;;;;;0.03;0.03;;;;;;;;;;5031084;28;20052;-71
2022/04/02 04:19:02;;;;;;;0.10;0.10;;;;;;;;;;5036906;28;20037;-72
2022/04/02 04:21:27;;;;;;;0.30;0.30;;;;;;;;;;5035202;28;20044;-72
2022/04/02 04:23:53;;;;;;;0.00;0.00;;;;;;;;;;5035098;28;20018;-71
2022/04/02 04:26:18;;;;;;;0.00;0.00;;;;;;;;;;5034890;28;20028;-72
2022/04/02 04:28:45;;;;;;;0.00;0.00;;;;;;;;;;5035239;28;20018;-72
2022/04/02 04:31:17;;;;;;;0.00;0.00;;;;;;;;;;5028471;28;20116;-71
2022/04/02 04:33:46;;;;;;;0.00;0.00;;;;;;;;;;5012295;28;20029;-72
2022/04/02 04:36:11;;;;;;;0.00;0.00;;;;;;;;;;5033885;28;20133;-71
2022/04/02 04:38:37;;;;;;;0.00;0.00;;;;;;;;;;5034988;28;20104;-71
2022/04/02 04:41:04;;;;;;;0.00;0.00;;;;;;;;;;5017457;28;20036;-71
2022/04/02 04:43:30;;;;;;;0.10;0.10;;;;;;;;;;5017280;28;20394;-72
2022/04/02 04:45:56;;;;;;;0.00;0.00;;;;;;;;;;5013775;28;20029;-74
2022/04/02 04:48:21;;;;;;;0.08;0.08;;;;;;;;;;5017328;28;20389;-74
2022/04/02 04:50:47;;;;;;;0.20;0.20;;;;;;;;;;5034448;28;20029;-74
2022/04/02 04:53:15;;;;;;;0.00;0.00;;;;;;;;;;5033884;28;20041;-74
2022/04/02 04:55:40;;;;;;;0.10;0.10;;;;;;;;;;5031295;28;20022;-74
2022/04/02 04:58:05;;;;;;;0.10;0.10;;;;;;;;;;5034619;28;20462;-74
2022/04/02 05:00:31;;;;;;;0.00;0.00;;;;;;;;;;5034215;28;20037;-73
2022/04/02 05:03:00;;;;;;;0.00;0.00;;;;;;;;;;5012465;28;20328;-74
2022/04/02 05:05:27;;;;;;;0.30;0.30;;;;;;;;;;5033618;28;20025;-73
2022/04/02 05:07:55;;;;;;;0.00;0.00;;;;;;;;;;5013850;28;20030;-74
2022/04/02 05:10:21;;;;;;;0.00;0.00;;;;;;;;;;5008387;28;20036;-74
2022/04/02 05:12:46;;;;;;;0.00;0.00;;;;;;;;;;5032089;28;20025;-74
2022/04/02 05:15:12;;;;;;;0.10;0.05;;;;;;;;;;5015800;28;20030;-73
2022/04/02 05:17:41;;;;;;;0.08;0.08;;;;;;;;;;5015247;28;20087;-73
2022/04/02 05:20:11;;;;;;;0.00;0.00;;;;;;;;;;5017490;28;20086;-74
2022/04/02 05:22:36;;;;;;;0.45;0.45;;;;;;;;;;5034555;28;20408;-74
2022/04/02 05:25:02;;;;;;;0.30;0.30;;;;;;;;;;5015969;28;20092;-74
2022/04/02 05:27:28;;;;;;;0.00;0.00;;;;;;;;;;5034140;28;20436;-74
2022/04/02 05:29:56;;;;;;;0.00;0.00;;;;;;;;;;5032564;28;20025;-74
2022/04/02 05:32:21;;;;;;;0.10;0.10;;;;;;;;;;5034528;28;20056;-74
2022/04/02 05:34:47;;;;;;;0.03;0.03;;;;;;;;;;5033693;28;20443;-71
2022/04/02 05:37:13;;;;;;;0.30;0.30;;;;;;;;;;5033874;28;20033;-74
2022/04/02 05:39:44;;;;;;;0.10;0.03;;;;;;;;;;5030152;28;20017;-74
2022/04/02 05:42:12;;;;;;;0.10;0.10;;;;;;;;;;5032804;28;20030;-75
2022/04/02 05:44:38;;;;;;;0.30;0.30;;;;;;;;;;5031598;28;20087;-74
2022/04/02 05:47:04;;;;;;;0.00;0.00;;;;;;;;;;5033201;28;20025;-73
2022/04/02 05:49:29;;;;;;;0.00;0.00;;;;;;;;;;5033529;28;20025;-74
2022/04/02 05:51:54;;;;;;;0.00;0.00;;;;;;;;;;5031479;28;20057;-74
2022/04/02 05:54:19;;;;;;;0.08;0.08;;;;;;;;;;5033318;28;20039;-74
2022/04/02 05:56:45;;;;;;;0.00;0.00;;;;;;;;;;5028362;28;20036;-74
2022/04/02 05:59:10;;;;;;;0.00;0.00;;;;;;;;;;5028840;28;20041;-74
2022/04/02 06:01:36;;;;;;;0.45;0.45;;;;;;;;;;5031316;28;20029;-74
2022/04/02 06:04:02;;;;;;;0.00;0.00;;;;;;;;;;5034074;28;20090;-74
2022/04/02 06:06:27;;;;;;;0.00;0.00;;;;;;;;;;5037640;28;20356;-75
2022/04/02 06:08:52;;;;;;;0.47;0.47;;;;;;;;;;5037929;28;20029;-74
2022/04/02 06:11:20;;;;;;;0.05;0.05;;;;;;;;;;5035270;28;20116;-74
2022/04/02 06:13:48;;;;;;;0.10;0.10;;;;;;;;;;5034938;28;20112;-74
2022/04/02 06:16:13;;;;;;;0.00;0.00;;;;;;;;;;5036808;28;20021;-74
2022/04/02 06:18:39;;;;;;;0.00;0.00;;;;;;;;;;5036810;28;20041;-74
2022/04/02 06:21:04;;;;;;;0.10;0.10;;;;;;;;;;5020004;28;20386;-74
2022/04/02 06:23:30;;;;;;;0.00;0.00;;;;;;;;;;5036199;28;20352;-73
2022/04/02 06:25:56;;;;;;;0.15;0.13;;;;;;;;;;5018116;28;20034;-74
2022/04/02 06:28:22;;;;;;;0.03;0.03;;;;;;;;;;5020713;28;20101;-74
2022/04/02 06:30:47;;;;;;;0.00;0.00;;;;;;;;;;5018714;28;20100;-74
2022/04/02 06:33:15;;;;;;;0.00;0.00;;;;;;;;;;5019760;28;20490;-74
2022/04/02 06:35:41;;;;;;;0.25;0.25;;;;;;;;;;5034631;28;20025;-74
2022/04/02 06:38:06;;;;;;;2.60;0.30;;;;;;;;;;5031405;28;20036;-74
2022/04/02 06:40:32;;;;;;;0.00;0.00;;;;;;;;;;5019630;28;20410;-74
2022/04/02 06:42:58;;;;;;;0.00;0.00;;;;;;;;;;5019767;28;20434;-74
2022/04/02 06:45:27;;;;;;;0.00;0.00;;;;;;;;;;5031699;28;20368;-74
2022/04/02 06:47:52;;;;;;;0.08;0.08;;;;;;;;;;5036781;28;20069;-74
2022/04/02 06:50:18;;;;;;;0.52;0.52;;;;;;;;;;5016152;28;20083;-74
2022/04/02 06:52:44;;;;;;;0.00;0.00;;;;;;;;;;5036347;28;20029;-74
2022/04/02 06:55:12;;;;;;;0.63;0.63;;;;;;;;;;5035451;28;20032;-74
2022/04/02 06:57:41;;;;;;;2.13;0.90;;;;;;;;;;5019409;28;20076;-74
2022/04/02 07:00:07;;;;;;;0.10;0.10;;;;;;;;;;5036014;28;20032;-75
2022/04/02 07:02:32;;;;;;;0.00;0.00;;;;;;;;;;5031642;28;20021;-74
2022/04/02 07:04:57;;;;;;;0.40;0.40;;;;;;;;;;5015955;28;20044;-74
2022/04/02 07:07:23;;;;;;;0.30;0.30;;;;;;;;;;5031441;28;20112;-74
2022/04/02 07:09:48;;;;;;;0.00;0.00;;;;;;;;;;5028099;28;20161;-74
2022/04/02 07:12:16;;;;;;;0.10;0.10;;;;;;;;;;5028991;28;20463;-74
2022/04/02 07:14:41;;;;;;;0.00;0.00;;;;;;;;;;5032364;28;20397;-76
2022/04/02 07:17:07;;;;;;;0.00;0.00;;;;;;;;;;5032796;28;20040;-74
2022/04/02 07:19:37;;;;;;;0.10;0.10;;;;;;;;;;5035121;28;20443;-74
2022/04/02 07:22:06;;;;;;;0.00;0.00;;;;;;;;;;5034215;28;20378;-74
2022/04/02 07:24:40;;;;;;;1.02;0.73;;;;;;;;;;5013615;28;20030;-74
2022/04/02 07:27:08;;;;;;;0.05;0.05;;;;;;;;;;5030189;28;20108;-74
2022/04/02 07:29:36;;;;;;;0.00;0.00;;;;;;;;;;5022897;28;20443;-75
2022/04/02 07:32:07;;;;;;;0.00;0.00;;;;;;;;;;5034194;28;20029;-75
2022/04/02 07:34:32;;;;;;;0.00;0.00;;;;;;;;;;5014176;28;20451;-75
2022/04/02 07:37:07;;;;;;;0.10;0.10;;;;;;;;;;5033446;28;20030;-75
2022/04/02 07:39:48;;;;;;;0.20;0.20;;;;;;;;;;5017543;28;20029;-75
2022/04/02 07:42:23;;;;;;;0.00;0.00;;;;;;;;;;5035946;28;20136;-75
2022/04/02 07:45:08;;;;;;;0.93;0.52;;;;;;;;;;5013309;28;20036;-76
2022/04/02 07:47:39;;;;;;;0.10;0.10;;;;;;;;;;4997783;28;20045;-76
2022/04/02 07:50:08;;;;;;;0.52;0.52;;;;;;;;;;5034695;28;20350;-76
2022/04/02 07:52:36;;;;;;;1.60;1.50;;;;;;;;;;5034401;28;20022;-76
2022/04/02 07:55:05;;;;;;;2.08;0.20;;;;;;;;;;5035650;28;20466;-76
2022/04/02 07:57:41;;;;;;;0.00;0.00;;;;;;;;;;5035308;28;20386;-76
2022/04/02 08:00:14;;;;;;;0.00;0.00;;;;;;;;;;5038111;28;20018;-76
2022/04/02 08:02:45;;;;;;;0.03;0.03;;;;;;;;;;5034539;28;20029;-76
2022/04/02 08:05:13;;;;;;;0.08;0.08;;;;;;;;;;5015732;28;20029;-76
2022/04/02 08:07:43;;;;;;;0.00;0.00;;;;;;;;;;5035099;28;20029;-77
2022/04/02 08:10:17;;;;;;;0.47;0.20;;;;;;;;;;5036527;28;20037;-76
2022/04/02 08:12:43;;;;;;;0.00;0.00;;;;;;;;;;4996793;28;20069;-84
2022/04/02 08:15:17;;;;;;;0.32;0.32;;;;;;;;;;5017202;28;20021;-83
2022/04/02 08:17:45;;;;;;;0.17;0.17;;;;;;;;;;5017573;28;20044;-83
2022/04/02 08:20:11;;;;;;;0.00;0.00;;;;;;;;;;5017342;28;20033;-83
2022/04/02 08:22:37;;;;;;;0.10;0.10;;;;;;;;;;5016254;28;20422;-81
2022/04/02 08:25:05;;;;;;;0.00;0.00;;;;;;;;;;5013122;28;20064;-83
2022/04/02 08:27:40;;;;;;;0.10;0.10;;;;;;;;;;5032908;28;20455;-83
2022/04/02 08:30:06;;;;;;;0.00;0.00;;;;;;;;;;5028442;28;20025;-85
2022/04/02 08:32:57;;;;;;;0.10;0.10;;;;;;;;;;5011100;28;20040;-83
2022/04/02 08:35:46;;;;;;;0.20;0.05;;;;;;;;;;5017672;28;20103;-82
2022/04/02 08:38:39;;;;;;;0.45;0.38;;;;;;;;;;5034849;28;20044;-83
2022/04/02 08:41:39;;;;;;;0.17;0.17;;;;;;;;;;5017599;28;20033;-83
2022/04/02 08:44:45;;;;;;;2.40;0.35;;;;;;;;;;5034851;28;20328;-82
2022/04/02 08:47:11;;;;;;;0.30;0.20;;;;;;;;;;4938573;29;20046;-81
2022/04/02 08:50:10;;;;;;;0.20;0.20;;;;;;;;;;5017377;28;20041;-82
2022/04/02 08:52:49;;;;;;;0.40;0.40;;;;;;;;;;4999959;28;20044;-83
2022/04/02 08:55:34;;;;;;;0.00;0.00;;;;;;;;;;5029921;28;20025;-84
2022/04/02 08:58:10;;;;;;;1.38;0.65;;;;;;;;;;5034568;28;20451;-82
2022/04/02 09:00:42;;;;;;;0.10;0.10;;;;;;;;;;5030983;28;20022;-82
2022/04/02 09:03:13;;;;;;;;;;;;;;;;;;5030140;28;20036;-84
2022/04/02 09:05:41;;;;;;;0.13;0.13;;;;;;;;;;5033541;28;19979;-81
2022/04/02 09:08:14;;;;;;;0.00;0.00;;;;;;;;;;5034330;28;20107;-85
2022/04/02 09:11:13;;;;;;;0.00;0.00;;;;;;;;;;5016820;28;20171;-84
2022/04/02 09:13:59;;;;;;;0.00;0.00;;;;;;;;;;5032452;28;20017;-82
2022/04/02 09:16:36;;;;;;;0.00;0.00;;;;;;;;;;5011657;28;20022;-83
2022/04/02 09:19:11;;;;;;;0.10;0.10;;;;;;;;;;5010487;28;20354;-82
2022/04/02 09:21:40;;;;;;;0.17;0.17;;;;;;;;;;4999962;28;20051;-83
2022/04/02 09:24:14;;;;;;;0.05;0.05;;;;;;;;;;5029302;28;20352;-81
2022/04/02 09:27:01;;;;;;;1.70;0.70;;;;;;;;;;5016679;28;20426;-83
2022/04/02 09:29:29;;;;;;;0.10;0.10;;;;;;;;;;5033896;28;20367;-80
2022/04/02 09:32:19;;;;;;;0.03;0.00;;;;;;;;;;4996725;28;20040;-82
2022/04/02 09:35:06;;;;;;;0.10;0.10;;;;;;;;;;5030975;28;20045;-83
2022/04/02 09:37:59;;;;;;;0.75;0.75;;;;;;;;;;5033226;28;20029;-83
2022/04/02 09:40:45;;;;;;;0.98;0.98;;;;;;;;;;5031501;28;20047;-83
2022/04/02 09:43:19;;;;;;;0.10;0.10;;;;;;;;;;5014014;28;20039;-80
2022/04/02 09:46:18;;;;;;;0.00;0.00;;;;;;;;;;5016250;28;20537;-79
2022/04/02 09:49:11;;;;;;;0.32;0.32;;;;;;;;;;5037706;28;20030;-79
2022/04/02 09:51:44;;;;;;;0.08;0.08;;;;;;;;;;4997765;28;20041;-78
2022/04/02 09:54:16;;;;;;;0.10;0.10;;;;;;;;;;5016446;28;20486;-78
2022/04/02 09:56:51;;;;;;;0.10;0.10;;;;;;;;;;4999241;28;20030;-80
2022/04/02 10:03:01;;;;;;;0.10;0.10;;;;;;;;;;4948468;28;20052;-79
2022/04/02 10:06:14;;;;;;;0.28;0.28;;;;;;;;;;4948801;28;20035;-77
2022/04/02 10:09:05;;;;;;;0.10;0.10;;;;;;;;;;4942068;29;20042;-76
2022/04/02 10:11:34;;;;;;;0.20;0.20;;;;;;;;;;4942000;29;20031;-79
2022/04/02 10:14:03;;;;;;;0.00;0.00;;;;;;;;;;4954041;29;20047;-80
2022/04/02 10:16:30;;;;;;;0.22;0.22;;;;;;;;;;4950255;28;20027;-79
2022/04/02 10:18:57;;;;;;;0.50;0.30;;;;;;;;;;4940346;29;20023;-78
2022/04/02 10:21:23;;;;;;;0.00;0.00;;;;;;;;;;4950486;29;20617;-77
2022/04/02 10:23:54;;;;;;;0.43;0.38;;;;;;;;;;4920619;29;20118;-77
2022/04/02 10:26:23;;;;;;;0.55;0.50;;;;;;;;;;4937633;29;20194;-78
2022/04/02 10:28:52;;;;;;;0.63;0.63;;;;;;;;;;4948076;28;20039;-80
2022/04/02 10:31:39;;;;;;;0.20;0.20;;;;;;;;;;4939081;29;20094;-79
2022/04/02 10:34:32;;;;;;;0.32;0.32;;;;;;;;;;4950496;29;20514;-79
2022/04/02 10:37:19;;;;;;;;;;;;;;;;;;4948402;29;20058;-80
2022/04/02 10:40:00;;;;;;;0.45;0.45;;;;;;;;;;4983724;28;19978;-79
2022/04/02 10:42:49;;;;;;;0.03;0.03;;;;;;;;;;4996605;28;20102;-79
2022/04/02 10:45:18;;;;;;;0.00;0.00;;;;;;;;;;4993933;28;20034;-78
2022/04/02 10:48:23;;;;;;;0.30;0.30;;;;;;;;;;5028143;28;20101;-83
2022/04/02 10:50:49;;;;;;;1.45;0.90;;;;;;;;;;5030962;28;20021;-80
2022/04/02 10:53:22;;;;;;;0.00;0.00;;;;;;;;;;4987063;28;20357;-81
2022/04/02 10:56:08;;;;;;;0.00;0.00;;;;;;;;;;4996972;28;20424;-80
2022/04/02 10:58:37;;;;;;;0.10;0.10;;;;;;;;;;5004409;28;20034;-80
2022/04/02 11:01:13;;;;;;;0.20;0.20;;;;;;;;;;5016792;28;20328;-81
2022/04/02 11:03:39;;;;;;;0.20;0.20;;;;;;;;;;5003304;28;20029;-80
2022/04/02 11:06:11;;;;;;;0.20;0.10;;;;;;;;;;4994938;28;20109;-79
2022/04/02 11:08:38;;;;;;;0.47;0.10;;;;;;;;;;4999544;28;20037;-79
2022/04/02 11:11:34;;;;;;;0.03;0.03;;;;;;;;;;4998991;28;20021;-79
2022/04/02 11:14:25;;;;;;;0.03;0.03;;;;;;;;;;4984431;28;20100;-79
2022/04/02 11:16:53;;;;;;;0.15;0.15;;;;;;;;;;5019167;28;20450;-77
2022/04/02 11:22:09;;;;;;;0.30;0.25;;;;;;;;;;5020949;28;20044;-79
2022/04/02 11:24:45;;;;;;;0.00;0.00;;;;;;;;;;4996239;28;20065;-79
2022/04/02 11:27:18;;;;;;;0.10;0.10;;;;;;;;;;5018493;28;20108;-79
2022/04/02 11:29:51;;;;;;;0.00;0.00;;;;;;;;;;5005526;28;20492;-80
2022/04/02 11:32:26;;;;;;;0.63;0.63;;;;;;;;;;5018298;28;20439;-79
2022/04/02 11:34:54;;;;;;;0.45;0.45;;;;;;;;;;5016530;28;20021;-80
2022/04/02 11:37:38;;;;;;;0.30;0.30;;;;;;;;;;4999124;28;20029;-79
2022/04/02 11:40:06;;;;;;;0.25;0.25;;;;;;;;;;4995823;28;20021;-79
2022/04/02 11:42:35;;;;;;;0.13;0.13;;;;;;;;;;4997958;28;20021;-79
2022/04/02 11:45:07;;;;;;;0.00;0.00;;;;;;;;;;4999898;28;20032;-77
2022/04/02 11:47:32;;;;;;;;;;;;;;;;;;5019280;28;20092;-78
2022/04/02 11:50:07;;;;;;;0.10;0.10;;;;;;;;;;5014995;28;19952;-77
2022/04/02 11:52:52;;;;;;;0.70;0.70;;;;;;;;;;4996834;28;20061;-78
2022/04/02 11:55:18;;;;;;;0.40;0.38;;;;;;;;;;5033301;28;20449;-78
2022/04/02 11:58:13;;;;;;;0.10;0.10;;;;;;;;;;5017502;28;20026;-78
2022/04/02 12:00:42;;;;;;;0.20;0.20;;;;;;;;;;5015810;28;20381;-78
2022/04/02 12:03:27;;;;;;;0.00;0.00;;;;;;;;;;5001457;28;20044;-78
2022/04/02 12:05:55;;;;;;;0.25;0.25;;;;;;;;;;5014319;28;20176;-78
2022/04/02 12:08:29;;;;;;;0.08;0.08;;;;;;;;;;4998902;28;20029;-79
2022/04/02 12:11:12;;;;;;;0.00;0.00;;;;;;;;;;4999170;28;20119;-78
2022/04/02 12:13:38;;;;;;;0.35;0.35;;;;;;;;;;4999442;28;20017;-79
2022/04/02 12:16:23;;;;;;;0.63;0.63;;;;;;;;;;5015912;28;20029;-79
2022/04/02 12:18:59;;;;;;;0.52;0.52;;;;;;;;;;5032456;28;20029;-79
2022/04/02 12:21:37;;;;;;;0.32;0.32;;;;;;;;;;5016007;28;20373;-79
2022/04/02 12:24:07;;;;;;;0.60;0.60;;;;;;;;;;5012411;28;20032;-77
2022/04/02 12:26:33;;;;;;;0.03;0.03;;;;;;;;;;5017226;28;20022;-77
2022/04/02 12:29:00;;;;;;;0.05;0.05;;;;;;;;;;5018412;28;20022;-79
2022/04/02 12:31:35;;;;;;;0.00;0.00;;;;;;;;;;5003969;28;20091;-78
2022/04/02 12:34:21;;;;;;;;;;;;;;;;;;;;;
2022/04/02 12:36:52;;;;;;;0.15;0.15;;;;;;;;;;5018018;28;20361;-78
2022/04/02 12:39:19;;;;;;;0.05;0.05;;;;;;;;;;4997689;28;20025;-78
2022/04/02 12:41:49;;;;;;;0.10;0.05;;;;;;;;;;4999418;28;20057;-78
2022/04/02 12:44:19;;;;;;;0.32;0.32;;;;;;;;;;5034075;28;20401;-78
2022/04/02 12:46:45;;;;;;;2.20;0.95;;;;;;;;;;5033979;28;20017;-78
2022/04/02 12:49:28;;;;;;;0.00;0.00;;;;;;;;;;5009263;28;20108;-78
2022/04/02 12:52:12;;;;;;;0.10;0.10;;;;;;;;;;5001036;28;20025;-78
2022/04/02 12:54:47;;;;;;;0.20;0.10;;;;;;;;;;5000194;28;20115;-78
2022/04/02 12:57:15;;;;;;;0.00;0.00;;;;;;;;;;5017280;28;20044;-78
2022/04/02 12:59:50;;;;;;;0.10;0.10;;;;;;;;;;5004654;28;20026;-78
2022/04/02 13:02:19;;;;;;;17.67;0.90;;;;;;;;;;5000089;28;20040;-78
2022/04/02 13:04:54;;;;;;;0.00;0.00;;;;;;;;;;5017419;28;20091;-79
2022/04/02 13:07:24;;;;;;;0.30;0.30;;;;;;;;;;5018069;28;20028;-78
2022/04/02 13:09:52;;;;;;;0.45;0.45;;;;;;;;;;5027912;28;20025;-78
2022/04/02 13:12:22;;;;;;;0.28;0.28;;;;;;;;;;5017016;28;20532;-77
2022/04/02 13:15:08;;;;;;;0.20;0.20;;;;;;;;;;5000383;28;20036;-78
2022/04/02 13:20:35;;;;;;;1.35;1.25;;;;;;;;;;5034111;28;20087;-78
2022/04/02 13:23:02;;;;;;;0.17;0.17;;;;;;;;;;5014038;28;20026;-77
2022/04/02 13:25:31;;;;;;;0.25;0.25;;;;;;;;;;5017080;28;20090;-77
2022/04/02 13:28:22;;;;;;;0.00;0.00;;;;;;;;;;5018280;28;20021;-77
2022/04/02 13:30:51;;;;;;;0.10;0.10;;;;;;;;;;5029423;28;20044;-78
2022/04/02 13:33:32;;;;;;;0.30;0.28;;;;;;;;;;5034115;28;20032;-78
2022/04/02 13:36:09;;;;;;;0.10;0.10;;;;;;;;;;5034277;28;20466;-76
2022/04/02 13:38:47;;;;;;;1.20;0.90;;;;;;;;;;5016583;28;20034;-77
2022/04/02 13:41:13;;;;;;;0.00;0.00;;;;;;;;;;5016319;28;20040;-78
2022/04/02 13:43:49;;;;;;;0.00;0.00;;;;;;;;;;5027644;28;20021;-78
2022/04/02 13:46:21;;;;;;;1.10;0.45;;;;;;;;;;5015944;28;20037;-78
2022/04/02 13:48:54;;;;;;;0.10;0.10;;;;;;;;;;5016786;28;20036;-78
2022/04/02 13:51:40;;;;;;;0.50;0.50;;;;;;;;;;5033719;28;20103;-78
2022/04/02 13:54:11;;;;;;;0.45;0.45;;;;;;;;;;5030780;28;20036;-77
2022/04/02 13:56:38;;;;;;;4.93;1.20;;;;;;;;;;5034206;28;20029;-77
2022/04/02 13:59:15;;;;;;;0.25;0.25;;;;;;;;;;5033571;28;20025;-78
2022/04/02 14:01:53;;;;;;;0.55;0.55;;;;;;;;;;5000192;28;20025;-78
2022/04/02 14:04:37;;;;;;;0.32;0.32;;;;;;;;;;5011946;28;20428;-78
2022/04/02 14:07:06;;;;;;;0.10;0.10;;;;;;;;;;5033778;28;20091;-78
2022/04/02 14:09:32;;;;;;;0.00;0.00;;;;;;;;;;5016514;28;20029;-77
2022/04/02 14:12:10;;;;;;;0.00;0.00;;;;;;;;;;5016352;28;20055;-78
2022/04/02 14:14:54;;;;;;;0.00;0.00;;;;;;;;;;5016591;28;20033;-78
2022/04/02 14:17:27;;;;;;;0.30;0.30;;;;;;;;;;5031867;28;20025;-78
2022/04/02 14:20:02;;;;;;;0.38;0.32;;;;;;;;;;5033530;28;20044;-78
2022/04/02 14:22:29;;;;;;;0.10;0.10;;;;;;;;;;5033425;28;20029;-77
2022/04/02 14:25:00;;;;;;;3.90;1.00;;;;;;;;;;5011285;28;20030;-76
2022/04/02 14:27:36;;;;;;;2.10;0.45;;;;;;;;;;5016702;28;20029;-77
2022/04/02 14:30:14;;;;;;;0.10;0.10;;;;;;;;;;5018971;28;20032;-78
2022/04/02 14:33:10;;;;;;;0.00;0.00;;;;;;;;;;5032580;28;20134;-77
2022/04/02 14:39:28;;;;;;;0.32;0.32;;;;;;;;;;5033420;28;20076;-77
2022/04/02 14:42:32;;;;;;;0.20;0.20;;;;;;;;;;5032914;28;20046;-79
2022/04/02 14:45:25;;;;;;;0.15;0.15;;;;;;;;;;4994288;28;20030;-79
2022/04/02 14:48:18;;;;;;;0.03;0.03;;;;;;;;;;5014308;28;20128;-77
2022/04/02 14:51:05;;;;;;;;;;;;;;;;;;5035995;28;20029;-78
2022/04/02 14:54:06;;;;;;;0.00;0.00;;;;;;;;;;5013135;28;19917;-78
2022/04/02 14:57:21;;;;;;;0.00;0.00;;;;;;;;;;4983133;28;20089;-78
2022/04/02 15:00:23;;;;;;;0.00;0.00;;;;;;;;;;4998121;28;20190;-78
2022/04/02 15:03:37;;;;;;;0.03;0.03;;;;;;;;;;5035990;28;20033;-76
2022/04/02 15:06:11;;;;;;;0.00;0.00;;;;;;;;;;4977995;28;20033;-78
2022/04/02 15:09:03;;;;;;;0.00;0.00;;;;;;;;;;5035737;28;20493;-78
2022/04/02 15:11:33;;;;;;;0.25;0.22;;;;;;;;;;5017545;28;20168;-78
2022/04/02 15:14:11;;;;;;;1.30;0.63;;;;;;;;;;5002447;28;20057;-78
2022/04/02 15:16:36;;;;;;;0.40;0.15;;;;;;;;;;5019180;28;20033;-78
2022/04/02 15:19:24;;;;;;;0.00;0.00;;;;;;;;;;5019397;28;20366;-78
2022/04/02 15:22:15;;;;;;;0.00;0.00;;;;;;;;;;5014938;28;20032;-78
2022/04/02 15:24:43;;;;;;;0.38;0.38;;;;;;;;;;5028070;28;20178;-77
2022/04/02 15:27:09;;;;;;;0.52;0.47;;;;;;;;;;5017403;28;20026;-78
2022/04/02 15:29:38;;;;;;;0.40;0.40;;;;;;;;;;5033349;28;20040;-76
2022/04/02 15:32:11;;;;;;;0.00;0.00;;;;;;;;;;5026383;28;20057;-78